Matt Devall — WCQ7740 — position and weather

sailwx.info

Track history (hours):
 
Tides and Currents Weather Stations Pressure Air Temp Water Temp Dewpoint Dewpoint Depression Visibility Wind Speed Wind Dir Waves Ship Positions

Matt Devall

Owner: MATT DEVALL INC, HACKBERRY, LA. More information available from US FCC via Universal Licensing System and Coast Guard Vessel Documentation Center.

Last reported at 2018-Jun-18 22:00 UTC. Time now 2018-Jun-18 22:24 UTC.
Position N 30°05' W 093°20'.

Length 17 m; draft 2.6 m.

MMSI: 366974120.

Date/timePositionNaut miles runAvg speedWind from/ knotsBaromVisibWave heightAir tempDewpointWater temp
2018-Jun-18 22:00N 30°05' W 093°20'0 1.0
2018-Jun-18 21:30N 30°05' W 093°20'2 3.3
2018-Jun-18 21:00N 30°04' W 093°21'1 3.0
2018-Jun-18 20:30N 30°05' W 093°20'1 1.5
2018-Jun-18 20:00N 30°06' W 093°20'0 0.3
2018-Jun-18 19:30N 30°06' W 093°20'2 4.6
2018-Jun-18 19:00N 30°08' W 093°20'3 5.6
2018-Jun-18 18:30N 30°11' W 093°19'3 6.2
2018-Jun-18 18:00N 30°12' W 093°16'2 3.5
2018-Jun-18 17:30N 30°14' W 093°15'2 3.3
2018-Jun-18 17:00N 30°15' W 093°14'1 1.3
2018-Jun-18 16:30N 30°15' W 093°13'1 1.6
2018-Jun-18 15:47N 30°15' W 093°12'0 0.2
2018-Jun-18 15:30N 30°15' W 093°12'1 2.4
2018-Jun-18 15:00N 30°15' W 093°14'1 2.1
2018-Jun-18 14:30N 30°14' W 093°15'1 2.1
2018-Jun-18 14:00N 30°13' W 093°15'0 0.0
2018-Jun-18 13:30N 30°13' W 093°15'1 2.8
2018-Jun-18 13:00N 30°12' W 093°16'3 5.4
2018-Jun-18 12:30N 30°11' W 093°18'3 5.4
2018-Jun-18 12:00N 30°09' W 093°20'3 5.9
2018-Jun-18 11:30N 30°06' W 093°20'0 0.6
2018-Jun-18 11:00N 30°06' W 093°20'2 3.8
2018-Jun-18 10:30N 30°07' W 093°20'3 5.4
2018-Jun-18 10:00N 30°10' W 093°19'3 6.1
2018-Jun-18 09:30N 30°12' W 093°17'1 2.0
2018-Jun-18 09:00N 30°13' W 093°17'3 5.4
2018-Jun-18 08:30N 30°11' W 093°19'1 1.9
2018-Jun-18 08:00N 30°10' W 093°19'3 5.3
2018-Jun-18 07:30N 30°08' W 093°20'3 5.3
2018-Jun-18 07:00N 30°05' W 093°20'0 0.3
2018-Jun-18 06:30N 30°05' W 093°20'0 0.0
2018-Jun-18 06:00N 30°05' W 093°20'0 0.0
2018-Jun-18 05:30N 30°05' W 093°20'0 0.0
2018-Jun-18 05:00N 30°05' W 093°20'0 0.0
2018-Jun-18 04:30N 30°05' W 093°20'0 0.0
2018-Jun-18 04:00N 30°05' W 093°20'1 2.4
2018-Jun-18 03:30N 30°06' W 093°19'1 1.6
2018-Jun-18 03:00N 30°06' W 093°18'0 0.0
2018-Jun-18 02:30N 30°06' W 093°18'0 0.0
2018-Jun-18 02:00N 30°06' W 093°18'0 0.0
2018-Jun-18 01:30N 30°06' W 093°18'0 0.0
2018-Jun-18 01:00N 30°06' W 093°18'0 0.0
2018-Jun-18 00:30N 30°06' W 093°18'0 0.0
2018-Jun-18 00:00N 30°06' W 093°18'0 0.1
2018-Jun-17 23:30N 30°06' W 093°18'0 0.0
2018-Jun-17 23:00N 30°06' W 093°18'3 5.4
2018-Jun-17 22:30N 30°04' W 093°20'1 2.4
2018-Jun-17 22:00N 30°04' W 093°21'2 4.3
2018-Jun-17 21:30N 30°05' W 093°20'0 0.8
2018-Jun-17 21:00N 30°06' W 093°20'0 0.1
2018-Jun-17 20:30N 30°06' W 093°20'0 0.2
2018-Jun-17 20:00N 30°06' W 093°20'0 0.1
2018-Jun-17 19:30N 30°06' W 093°20'0 0.0
2018-Jun-17 19:00N 30°06' W 093°20'0 0.0
2018-Jun-17 18:30N 30°06' W 093°20'0 0.0
2018-Jun-17 18:00N 30°06' W 093°20'0 0.0
2018-Jun-17 17:30N 30°06' W 093°20'0 0.0
2018-Jun-17 17:00N 30°06' W 093°20'0 0.0
2018-Jun-17 16:30N 30°06' W 093°20'0 0.0
2018-Jun-17 16:00N 30°06' W 093°20'0 0.0
2018-Jun-17 15:30N 30°06' W 093°20'0 0.0
2018-Jun-17 15:00N 30°06' W 093°20'0 0.0
2018-Jun-17 14:30N 30°06' W 093°20'0 0.0
2018-Jun-17 14:00N 30°06' W 093°20'0 0.0
2018-Jun-17 13:29N 30°06' W 093°20'0 0.0
2018-Jun-17 13:00N 30°06' W 093°20'0 0.0
2018-Jun-17 12:30N 30°06' W 093°20'1 1.4
2018-Jun-17 12:00N 30°06' W 093°19'0 0.1
2018-Jun-17 11:30N 30°06' W 093°19'2 4.5
2018-Jun-17 11:00N 30°04' W 093°21'1 1.8
2018-Jun-17 10:30N 30°04' W 093°22'1 1.2
2018-Jun-17 10:00N 30°04' W 093°21'1 3.0
2018-Jun-17 09:30N 30°05' W 093°20'0 0.0
2018-Jun-17 09:00N 30°05' W 093°20'0 0.0
2018-Jun-17 08:30N 30°05' W 093°20'0 0.0
2018-Jun-17 08:00N 30°05' W 093°20'1 2.9
2018-Jun-17 07:30N 30°06' W 093°20'3 5.9
2018-Jun-17 07:00N 30°09' W 093°20'1 2.6
2018-Jun-17 06:30N 30°10' W 093°19'0 0.5
2018-Jun-17 06:00N 30°10' W 093°19'2 3.7
2018-Jun-17 05:30N 30°12' W 093°18'2 3.3
2018-Jun-17 05:00N 30°13' W 093°17'1 1.2
2018-Jun-17 04:30N 30°14' W 093°17'2 3.5
2018-Jun-17 04:00N 30°12' W 093°17'2 4.9
2018-Jun-17 03:30N 30°10' W 093°19'2 4.8
2018-Jun-17 03:00N 30°08' W 093°20'2 4.0
2018-Jun-17 02:30N 30°06' W 093°20'0 0.1
2018-Jun-17 02:00N 30°06' W 093°20'0 0.0
2018-Jun-17 01:30N 30°06' W 093°20'0 0.0
2018-Jun-17 01:00N 30°06' W 093°20'0 0.7
2018-Jun-17 00:30N 30°05' W 093°20'1 2.3
2018-Jun-17 00:00N 30°04' W 093°20'0 0.0
2018-Jun-16 23:30N 30°04' W 093°20'0 0.0
2018-Jun-16 23:00N 30°04' W 093°20'1 1.3
2018-Jun-16 22:30N 30°04' W 093°21'0 0.2
2018-Jun-16 22:00N 30°04' W 093°21'2 3.9
2018-Jun-16 21:29N 30°06' W 093°20'2 3.4
2018-Jun-16 21:00N 30°04' W 093°21'2 3.4
2018-Jun-16 20:27N 30°04' W 093°23'0 0.4
2018-Jun-16 20:00N 30°04' W 093°23'0 0.7
2018-Jun-16 19:30N 30°04' W 093°23'2 3.9
2018-Jun-16 19:00N 30°04' W 093°20'0 0.1
2018-Jun-16 18:30N 30°04' W 093°20'0 0.0
2018-Jun-16 18:00N 30°04' W 093°20'1 1.9
2018-Jun-16 17:30N 30°04' W 093°21'1 1.7
2018-Jun-16 17:00N 30°04' W 093°22'0 0.0
2018-Jun-16 16:30N 30°04' W 093°22'1 2.1
2018-Jun-16 16:00N 30°04' W 093°21'1 2.5
2018-Jun-16 15:30N 30°05' W 093°20'1 1.1
2018-Jun-16 15:00N 30°04' W 093°20'0 0.5
2018-Jun-16 14:30N 30°04' W 093°21'1 1.1
2018-Jun-16 14:00N 30°05' W 093°20'2 3.9
2018-Jun-16 13:30N 30°07' W 093°20'3 5.3
2018-Jun-16 13:00N 30°09' W 093°20'0 0.2
2018-Jun-16 12:30N 30°09' W 093°20'3 5.1
2018-Jun-16 12:00N 30°11' W 093°18'2 4.1
2018-Jun-16 11:30N 30°13' W 093°17'0 0.7
2018-Jun-16 11:00N 30°14' W 093°17'2 4.9
2018-Jun-16 10:30N 30°11' W 093°18'3 5.7
2018-Jun-16 10:00N 30°09' W 093°20'3 5.9
2018-Jun-16 09:30N 30°06' W 093°20'1 2.8
2018-Jun-16 08:59N 30°05' W 093°20'0 0.0
2018-Jun-16 08:30N 30°05' W 093°20'0 0.5
2018-Jun-16 08:00N 30°04' W 093°20'0 0.2
2018-Jun-16 07:30N 30°05' W 093°20'0 0.3
2018-Jun-16 07:00N 30°05' W 093°20'0 0.0
2018-Jun-16 06:30N 30°05' W 093°20'0 0.3
2018-Jun-16 06:00N 30°05' W 093°20'1 1.7
2018-Jun-16 05:29N 30°06' W 093°20'0 0.0
2018-Jun-16 05:00N 30°06' W 093°20'0 0.0
2018-Jun-16 04:30N 30°06' W 093°20'0 0.0
2018-Jun-16 04:00N 30°06' W 093°20'0 0.0
2018-Jun-16 03:30N 30°06' W 093°20'0 0.0
2018-Jun-16 02:59N 30°06' W 093°20'0 0.0
2018-Jun-16 02:30N 30°06' W 093°20'0 0.0
2018-Jun-16 02:00N 30°06' W 093°20'0 0.0
2018-Jun-16 01:30N 30°06' W 093°20'0 0.0
2018-Jun-16 01:00N 30°06' W 093°20'0 0.0
2018-Jun-16 00:30N 30°06' W 093°20'0 0.2
2018-Jun-16 00:00N 30°06' W 093°20'2 4.3
2018-Jun-15 23:30N 30°04' W 093°21'0 0.5
2018-Jun-15 23:00N 30°04' W 093°21'2 4.6
2018-Jun-15 22:30N 30°06' W 093°20'0 0.6
2018-Jun-15 22:00N 30°05' W 093°20'2 4.5
2018-Jun-15 21:30N 30°04' W 093°21'0 0.3
2018-Jun-15 21:00N 30°04' W 093°21'0 0.0
2018-Jun-15 20:30N 30°04' W 093°21'0 0.0
2018-Jun-15 20:00N 30°04' W 093°21'1 1.0
2018-Jun-15 19:30N 30°04' W 093°22'0 0.4
2018-Jun-15 19:00N 30°04' W 093°22'0 0.3
2018-Jun-15 18:30N 30°04' W 093°22'0 0.1
2018-Jun-15 18:00N 30°04' W 093°22'1 1.6
2018-Jun-15 17:30N 30°04' W 093°21'1 1.6
2018-Jun-15 17:00N 30°04' W 093°20'0 0.6
2018-Jun-15 16:30N 30°05' W 093°20'1 1.4
2018-Jun-15 15:59N 30°04' W 093°21'1 1.7
2018-Jun-15 15:30N 30°04' W 093°21'0 0.9
2018-Jun-15 15:00N 30°04' W 093°22'2 3.1
2018-Jun-15 14:30N 30°04' W 093°20'0 0.1
2018-Jun-15 14:00N 30°04' W 093°20'0 0.1
2018-Jun-15 13:30N 30°04' W 093°20'1 1.9
2018-Jun-15 13:00N 30°04' W 093°21'0 1.0
2018-Jun-15 12:30N 30°04' W 093°22'3 5.6
2018-Jun-15 12:00N 30°04' W 093°25'3 5.8
2018-Jun-15 11:30N 30°04' W 093°28'3 6.0
2018-Jun-15 11:00N 30°04' W 093°32'3 6.1
2018-Jun-15 10:30N 30°04' W 093°35'4 6.3
2018-Jun-15 09:51N 30°04' W 093°40'2 6.1
2018-Jun-15 09:30N 30°03' W 093°43'3 5.6
2018-Jun-15 08:59N 30°01' W 093°45'3 5.8
2018-Jun-15 08:31N 29°59' W 093°47'3 5.9
2018-Jun-15 08:00N 29°58' W 093°50'2 3.1
2018-Jun-15 07:30N 29°57' W 093°52'0 0.8
2018-Jun-15 07:00N 29°57' W 093°52'1 2.9
2018-Jun-15 06:30N 29°58' W 093°52'3 5.2
2018-Jun-15 06:01N 29°59' W 093°54'0 0.0
2018-Jun-15 05:30N 29°59' W 093°54'0 0.0
2018-Jun-15 04:59N 29°59' W 093°54'0 0.0
2018-Jun-15 04:31N 29°59' W 093°54'0 0.0
2018-Jun-15 04:01N 29°59' W 093°54'0 0.0
2018-Jun-15 03:30N 29°59' W 093°54'0 0.0
2018-Jun-15 03:00N 29°59' W 093°54'0 0.0
2018-Jun-15 02:30N 29°59' W 093°54'0 0.0
2018-Jun-15 02:00N 29°59' W 093°54'0 0.0
2018-Jun-15 01:30N 29°59' W 093°54'0 0.0
2018-Jun-15 01:00N 29°59' W 093°54'0 0.0
2018-Jun-15 00:31N 29°59' W 093°54'0 0.0
2018-Jun-15 00:01N 29°59' W 093°54'2 3.2
2018-Jun-14 23:30N 29°59' W 093°53'2 4.2
2018-Jun-14 23:00N 29°57' W 093°52'1 1.6
2018-Jun-14 22:30N 29°58' W 093°52'1 1.7
2018-Jun-14 22:01N 29°57' W 093°52'3 5.9
2018-Jun-14 21:30N 29°59' W 093°49'4 6.6
2018-Jun-14 20:50N 30°01' W 093°45'3 6.6
2018-Jun-14 20:26N 30°03' W 093°43'10 6.2
2018-Jun-14 18:49N 30°04' W 093°31'2 5.9
2018-Jun-14 18:30N 30°04' W 093°29'3 5.9
2018-Jun-14 18:00N 30°04' W 093°26'3 5.6
2018-Jun-14 17:30N 30°04' W 093°23'3 5.7
2018-Jun-14 17:00N 30°05' W 093°20'1 1.7
2018-Jun-14 16:30N 30°04' W 093°20'1 2.5
2018-Jun-14 16:00N 30°04' W 093°22'2 4.2
2018-Jun-14 15:30N 30°05' W 093°20'0 0.6
2018-Jun-14 15:00N 30°05' W 093°20'2 4.0
2018-Jun-14 14:30N 30°04' W 093°22'2 3.9
2018-Jun-14 14:00N 30°05' W 093°20'1 1.7
2018-Jun-14 13:30N 30°06' W 093°20'2 4.2
2018-Jun-14 13:00N 30°04' W 093°21'0 0.9
2018-Jun-14 12:30N 30°04' W 093°21'3 5.0
2018-Jun-14 12:00N 30°06' W 093°20'0 0.4
2018-Jun-14 11:30N 30°06' W 093°20'1 1.4
2018-Jun-14 11:00N 30°05' W 093°20'1 1.5
2018-Jun-14 10:30N 30°04' W 093°20'1 1.6
2018-Jun-14 10:00N 30°05' W 093°20'3 5.1
2018-Jun-14 09:30N 30°08' W 093°20'2 4.8
2018-Jun-14 09:00N 30°10' W 093°19'3 5.3
2018-Jun-14 08:30N 30°12' W 093°17'1 2.8
2018-Jun-14 07:59N 30°13' W 093°17'1 2.6
2018-Jun-14 07:30N 30°12' W 093°17'3 5.4
2018-Jun-14 07:00N 30°10' W 093°19'2 4.9
2018-Jun-14 06:30N 30°08' W 093°20'2 4.6
2018-Jun-14 06:00N 30°06' W 093°20'0 0.0
2018-Jun-14 05:29N 30°06' W 093°20'0 0.0
2018-Jun-14 05:00N 30°06' W 093°20'0 0.0
2018-Jun-14 04:30N 30°06' W 093°20'0 0.0
2018-Jun-14 04:00N 30°06' W 093°20'0 0.0
2018-Jun-14 03:30N 30°06' W 093°20'0 0.0
2018-Jun-14 03:00N 30°06' W 093°20'0 0.0
2018-Jun-14 02:30N 30°06' W 093°20'0 0.0
2018-Jun-14 02:00N 30°06' W 093°20'0 0.0
2018-Jun-14 01:30N 30°06' W 093°20'0 0.0
2018-Jun-14 01:00N 30°06' W 093°20'1 1.6
2018-Jun-14 00:30N 30°05' W 093°20'2 3.8
2018-Jun-14 00:00N 30°06' W 093°18'2 3.1
2018-Jun-13 23:30N 30°06' W 093°20'0 0.3
2018-Jun-13 23:00N 30°06' W 093°20'2 3.8
2018-Jun-13 22:30N 30°08' W 093°20'3 5.9
2018-Jun-13 22:00N 30°10' W 093°19'3 6.4
2018-Jun-13 21:30N 30°12' W 093°16'2 3.6
2018-Jun-13 21:00N 30°14' W 093°15'0 0.1
2018-Jun-13 20:30N 30°14' W 093°15'0 0.3
2018-Jun-13 19:59N 30°14' W 093°15'0 0.2
2018-Jun-13 19:30N 30°14' W 093°15'1 1.9
2018-Jun-13 19:00N 30°13' W 093°16'2 3.7
2018-Jun-13 18:30N 30°12' W 093°17'2 4.1
2018-Jun-13 18:00N 30°10' W 093°19'2 3.7
2018-Jun-13 17:30N 30°09' W 093°20'2 4.0
2018-Jun-13 17:00N 30°07' W 093°20'2 3.4
2018-Jun-13 16:30N 30°05' W 093°20'1 1.6
2018-Jun-13 16:00N 30°04' W 093°20'1 1.9
2018-Jun-13 15:30N 30°04' W 093°21'0 0.3
2018-Jun-13 15:00N 30°04' W 093°21'0 0.2
2018-Jun-13 14:30N 30°04' W 093°21'0 0.0
2018-Jun-13 14:00N 30°04' W 093°21'0 0.0
2018-Jun-13 13:30N 30°04' W 093°21'0 0.0
2018-Jun-13 13:00N 30°04' W 093°21'2 3.7
2018-Jun-13 12:30N 30°05' W 093°20'0 0.0
2018-Jun-13 12:00N 30°05' W 093°20'0 0.0
2018-Jun-13 11:30N 30°05' W 093°20'0 0.1
2018-Jun-13 11:00N 30°05' W 093°20'2 3.2
2018-Jun-13 10:30N 30°04' W 093°21'0 0.7
2018-Jun-13 10:00N 30°04' W 093°21'0 0.2
2018-Jun-13 09:30N 30°04' W 093°21'2 3.6
2018-Jun-13 09:00N 30°05' W 093°20'1 2.0
2018-Jun-13 08:30N 30°04' W 093°21'2 3.8
2018-Jun-13 08:00N 30°04' W 093°23'1 1.3
2018-Jun-13 07:30N 30°04' W 093°22'2 3.0
2018-Jun-13 07:00N 30°04' W 093°20'0 0.0
2018-Jun-13 06:30N 30°04' W 093°20'0 0.0
2018-Jun-13 06:00N 30°04' W 093°20'0 0.8
2018-Jun-13 05:30N 30°04' W 093°21'0 0.0
2018-Jun-13 05:00N 30°04' W 093°21'1 1.5
2018-Jun-13 04:30N 30°04' W 093°21'0 0.5
2018-Jun-13 04:00N 30°04' W 093°22'0 1.0
2018-Jun-13 03:30N 30°04' W 093°21'3 5.1
2018-Jun-13 03:00N 30°04' W 093°24'3 5.6
2018-Jun-13 02:30N 30°04' W 093°27'3 6.1
2018-Jun-13 02:00N 30°04' W 093°31'7 6.0
2018-Jun-13 00:53N 30°04' W 093°39'2 5.9
2018-Jun-13 00:28N 30°04' W 093°41'3 5.8
2018-Jun-13 00:00N 30°02' W 093°44'3 5.7
2018-Jun-12 23:30N 30°00' W 093°46'3 5.7
2018-Jun-12 23:01N 29°59' W 093°49'3 5.6
2018-Jun-12 22:31N 29°57' W 093°52'1 1.2
2018-Jun-12 22:00N 29°58' W 093°52'1 1.5
2018-Jun-12 21:30N 29°57' W 093°52'3 5.4
2018-Jun-12 21:00N 29°59' W 093°50'4 6.1
2018-Jun-12 20:17N 30°01' W 093°45'3 6.0
2018-Jun-12 19:48N 30°03' W 093°43'2 6.1
2018-Jun-12 19:30N 30°04' W 093°41'8 5.9
2018-Jun-12 18:04N 30°04' W 093°31'0 5.8
2018-Jun-12 17:58N 30°04' W 093°31'3 5.9
2018-Jun-12 17:30N 30°04' W 093°27'3 5.8
2018-Jun-12 17:00N 30°04' W 093°24'2 4.9
2018-Jun-12 16:30N 30°04' W 093°21'2 3.7
2018-Jun-12 16:00N 30°05' W 093°20'0 0.9
2018-Jun-12 15:30N 30°04' W 093°20'3 6.8
2018-Jun-12 15:00N 30°01' W 093°20'14 4.9
2018-Jun-12 12:07N 29°47' W 093°20'6 3.0
2018-Jun-12 10:11N 29°53' W 093°21'1 5.3
2018-Jun-12 09:59N 29°54' W 093°21'3 5.4
2018-Jun-12 09:31N 29°56' W 093°20'3 5.4
2018-Jun-12 09:01N 29°59' W 093°20'3 5.4
2018-Jun-12 08:31N 30°02' W 093°20'3 5.6
2018-Jun-12 08:00N 30°05' W 093°20'2 3.2
2018-Jun-12 07:31N 30°04' W 093°21'2 3.1
2018-Jun-12 07:01N 30°04' W 093°23'1 2.4
2018-Jun-12 06:30N 30°04' W 093°24'3 5.6
2018-Jun-12 06:01N 30°04' W 093°28'3 6.0
2018-Jun-12 05:30N 30°04' W 093°31'5 5.4
2018-Jun-12 04:37N 30°04' W 093°37'1 6.6
2018-Jun-12 04:29N 30°04' W 093°38'4 6.5
2018-Jun-12 03:55N 30°04' W 093°42'3 6.1
2018-Jun-12 03:30N 30°02' W 093°44'3 6.2
2018-Jun-12 02:59N 29°60' W 093°47'3 6.4
2018-Jun-12 02:31N 29°59' W 093°50'2 3.7
2018-Jun-12 02:00N 29°58' W 093°52'0 0.5
2018-Jun-12 01:30N 29°58' W 093°52'0 0.7
2018-Jun-12 01:01N 29°58' W 093°51'0 0.5
2018-Jun-12 00:29N 29°58' W 093°52'0 0.5
2018-Jun-12 00:00N 29°58' W 093°51'3 6.3
2018-Jun-11 23:30N 29°59' W 093°48'3 6.2
2018-Jun-11 23:00N 30°01' W 093°45'3 5.7
2018-Jun-11 22:30N 30°03' W 093°43'10 5.9
2018-Jun-11 20:48N 30°04' W 093°31'2 6.1
2018-Jun-11 20:30N 30°04' W 093°29'3 6.1
2018-Jun-11 20:00N 30°04' W 093°26'3 5.6
2018-Jun-11 19:31N 30°04' W 093°22'0 0.9
2018-Jun-11 19:01N 30°04' W 093°23'1 2.9
2018-Jun-11 18:30N 30°04' W 093°21'0 0.1
2018-Jun-11 18:01N 30°04' W 093°21'0 0.0
2018-Jun-11 17:31N 30°04' W 093°21'0 0.0
2018-Jun-11 17:01N 30°04' W 093°21'0 0.0
2018-Jun-11 16:30N 30°04' W 093°21'0 0.0
2018-Jun-11 16:00N 30°04' W 093°21'0 0.0
2018-Jun-11 15:31N 30°04' W 093°21'0 0.0
2018-Jun-11 15:00N 30°04' W 093°21'0 0.0
2018-Jun-11 14:31N 30°04' W 093°21'0 0.0
2018-Jun-11 14:01N 30°04' W 093°21'0 0.0
2018-Jun-11 13:30N 30°04' W 093°21'0 0.0
2018-Jun-11 13:00N 30°04' W 093°21'2 3.4
2018-Jun-11 12:30N 30°05' W 093°20'0 0.5
2018-Jun-11 12:00N 30°05' W 093°20'3 5.2
2018-Jun-11 11:30N 30°08' W 093°20'3 5.5
2018-Jun-11 11:00N 30°10' W 093°19'0 0.2
2018-Jun-11 10:30N 30°10' W 093°19'0 0.0
2018-Jun-11 10:00N 30°10' W 093°19'1 1.5
2018-Jun-11 09:30N 30°10' W 093°19'3 6.1
2018-Jun-11 09:00N 30°07' W 093°20'2 4.9
2018-Jun-11 08:30N 30°04' W 093°21'1 2.3
2018-Jun-11 08:00N 30°04' W 093°22'0 0.2
2018-Jun-11 07:30N 30°04' W 093°22'1 2.9
2018-Jun-11 07:00N 30°05' W 093°20'1 1.6
2018-Jun-11 06:30N 30°05' W 093°20'1 2.8
2018-Jun-11 06:00N 30°06' W 093°19'0 0.5
2018-Jun-11 05:30N 30°06' W 093°19'3 5.2
2018-Jun-11 05:00N 30°04' W 093°21'1 1.8
2018-Jun-11 04:30N 30°04' W 093°22'0 0.1
2018-Jun-11 04:00N 30°04' W 093°22'0 0.2
2018-Jun-11 03:28N 30°04' W 093°22'1 2.2
2018-Jun-11 03:00N 30°04' W 093°21'0 1.0
2018-Jun-11 02:30N 30°05' W 093°20'3 5.6
2018-Jun-11 02:00N 30°07' W 093°20'3 6.6
2018-Jun-11 01:30N 30°11' W 093°19'3 6.5
2018-Jun-11 01:00N 30°12' W 093°16'1 1.3
2018-Jun-11 00:30N 30°13' W 093°15'0 0.1
2018-Jun-11 00:00N 30°13' W 093°15'0 0.0
2018-Jun-10 23:30N 30°13' W 093°15'1 1.2
2018-Jun-10 23:00N 30°13' W 093°16'2 3.7
2018-Jun-10 22:30N 30°12' W 093°17'3 5.9
2018-Jun-10 22:00N 30°10' W 093°19'3 5.8
2018-Jun-10 21:30N 30°07' W 093°20'2 4.3
2018-Jun-10 21:00N 30°05' W 093°20'0 0.0
2018-Jun-10 20:30N 30°05' W 093°20'2 4.1
2018-Jun-10 20:00N 30°06' W 093°19'2 3.6
2018-Jun-10 19:30N 30°05' W 093°20'2 3.1
2018-Jun-10 19:00N 30°04' W 093°21'3 5.8
2018-Jun-10 18:30N 30°06' W 093°19'1 1.9
2018-Jun-10 18:00N 30°05' W 093°20'0 0.4
2018-Jun-10 17:30N 30°05' W 093°20'2 3.1
2018-Jun-10 17:00N 30°06' W 093°18'0 0.0
2018-Jun-10 16:30N 30°06' W 093°18'0 0.5
2018-Jun-10 16:00N 30°06' W 093°18'2 4.5
2018-Jun-10 15:30N 30°05' W 093°20'1 2.3
2018-Jun-10 15:00N 30°04' W 093°21'0 0.0
2018-Jun-10 14:30N 30°04' W 093°21'0 0.0
2018-Jun-10 13:30N 30°04' W 093°21'1 2.2
2018-Jun-10 13:00N 30°04' W 093°20'0 0.0
2018-Jun-10 12:30N 30°04' W 093°20'0 0.0
2018-Jun-10 12:00N 30°04' W 093°20'0 0.0
2018-Jun-10 11:30N 30°04' W 093°20'0 0.5
2018-Jun-10 11:01N 30°04' W 093°21'1 2.2
2018-Jun-10 10:30N 30°04' W 093°22'0 0.3
2018-Jun-10 10:00N 30°04' W 093°22'1 2.3
2018-Jun-10 09:30N 30°04' W 093°21'2 4.6
2018-Jun-10 09:01N 30°06' W 093°20'2 4.5
2018-Jun-10 08:30N 30°09' W 093°20'0 0.6
2018-Jun-10 08:00N 30°09' W 093°20'0 0.0
2018-Jun-10 07:30N 30°09' W 093°20'0 0.0
2018-Jun-10 07:00N 30°09' W 093°20'0 0.0
2018-Jun-10 06:30N 30°09' W 093°20'0 0.0
2018-Jun-10 06:01N 30°09' W 093°20'0 0.0
2018-Jun-10 05:30N 30°09' W 093°20'0 0.0
2018-Jun-10 05:01N 30°09' W 093°20'0 0.0
2018-Jun-10 04:30N 30°09' W 093°20'0 0.0
2018-Jun-10 04:00N 30°09' W 093°20'0 0.0
2018-Jun-10 03:30N 30°09' W 093°20'0 0.0
2018-Jun-10 03:00N 30°09' W 093°20'0 0.0
2018-Jun-10 02:30N 30°09' W 093°20'0 0.0
2018-Jun-10 02:00N 30°09' W 093°20'0 0.0
2018-Jun-10 01:30N 30°09' W 093°20'0 0.0
2018-Jun-10 01:00N 30°09' W 093°20'0 0.0
2018-Jun-10 00:31N 30°09' W 093°20'0 0.0
2018-Jun-10 00:01N 30°09' W 093°20'0 0.0
2018-Jun-09 23:30N 30°09' W 093°20'0 0.0
2018-Jun-09 23:01N 30°09' W 093°20'0 0.0
2018-Jun-09 22:31N 30°09' W 093°20'1 1.5
2018-Jun-09 22:00N 30°08' W 093°20'0 0.0
2018-Jun-09 21:30N 30°08' W 093°20'0 0.0
2018-Jun-09 21:01N 30°08' W 093°20'1 2.8
2018-Jun-09 20:30N 30°07' W 093°20'2 3.8
2018-Jun-09 20:00N 30°05' W 093°20'0 0.1
2018-Jun-09 19:31N 30°05' W 093°20'0 0.0
2018-Jun-09 19:00N 30°05' W 093°20'2 3.4
2018-Jun-09 18:30N 30°04' W 093°21'0 0.0
2018-Jun-09 17:58N 30°04' W 093°21'0 0.0
2018-Jun-09 17:30N 30°04' W 093°21'0 0.0
2018-Jun-09 17:00N 30°04' W 093°21'0 0.0
2018-Jun-09 16:30N 30°04' W 093°21'0 0.0
2018-Jun-09 16:00N 30°04' W 093°21'0 0.0
2018-Jun-09 15:01N 30°04' W 093°21'0 0.0
2018-Jun-09 14:30N 30°04' W 093°21'0 0.0
2018-Jun-09 14:01N 30°04' W 093°21'0 0.0
2018-Jun-09 13:30N 30°04' W 093°21'0 0.0
2018-Jun-09 13:00N 30°04' W 093°21'0 0.0
2018-Jun-09 12:30N 30°04' W 093°21'0 0.0
2018-Jun-09 12:00N 30°04' W 093°21'0 0.0
2018-Jun-09 11:30N 30°04' W 093°21'0 0.6
2018-Jun-09 11:00N 30°04' W 093°22'0 0.8
2018-Jun-09 10:30N 30°04' W 093°21'1 2.4
2018-Jun-09 10:01N 30°05' W 093°20'0 0.4
2018-Jun-09 09:30N 30°05' W 093°20'0 0.0
2018-Jun-09 08:57N 30°05' W 093°20'0 0.0
2018-Jun-09 08:28N 30°05' W 093°20'0 0.0
2018-Jun-09 07:59N 30°05' W 093°20'0 0.0
2018-Jun-09 07:29N 30°05' W 093°20'0 0.7
2018-Jun-09 07:00N 30°05' W 093°20'2 4.7
2018-Jun-09 06:30N 30°07' W 093°20'2 3.2
2018-Jun-09 06:00N 30°09' W 093°20'0 0.3
2018-Jun-09 05:30N 30°09' W 093°20'3 5.4
2018-Jun-09 05:00N 30°06' W 093°20'2 3.1
2018-Jun-09 04:30N 30°05' W 093°20'0 0.0
2018-Jun-09 04:00N 30°05' W 093°20'0 0.0
2018-Jun-09 03:30N 30°05' W 093°20'0 0.2
2018-Jun-09 03:00N 30°05' W 093°20'0 0.0
2018-Jun-09 02:30N 30°05' W 093°20'0 0.0
2018-Jun-09 02:01N 30°05' W 093°20'0 0.0
2018-Jun-09 01:30N 30°05' W 093°20'0 0.0
2018-Jun-09 01:00N 30°05' W 093°20'0 0.0
2018-Jun-09 00:30N 30°05' W 093°20'0 0.0
2018-Jun-09 00:00N 30°05' W 093°20'0 0.0
2018-Jun-08 23:31N 30°05' W 093°20'0 0.0
2018-Jun-08 23:00N 30°05' W 093°20'1 1.0
2018-Jun-08 22:30N 30°04' W 093°21'0 0.9
2018-Jun-08 22:01N 30°04' W 093°21'  
Track history (hours):
 
Tides and Currents Weather Stations Pressure Air Temp Water Temp Dewpoint Dewpoint Depression Visibility Wind Speed Wind Dir Waves Ship Positions

Matt Devall

Owner: MATT DEVALL INC, HACKBERRY, LA. More information available from US FCC via Universal Licensing System and Coast Guard Vessel Documentation Center.

Last reported at 2018-Jun-18 22:00 UTC. Time now 2018-Jun-18 22:24 UTC.
Position N 30°05' W 093°20'.

Length 17 m; draft 2.6 m.

MMSI: 366974120.

Date/timePositionNaut miles runAvg speedWind from/ knotsBaromVisibWave heightAir tempDewpointWater temp
2018-Jun-18 22:00N 30°05' W 093°20'0 1.0
2018-Jun-18 21:30N 30°05' W 093°20'2 3.3
2018-Jun-18 21:00N 30°04' W 093°21'1 3.0
2018-Jun-18 20:30N 30°05' W 093°20'1 1.5
2018-Jun-18 20:00N 30°06' W 093°20'0 0.3
2018-Jun-18 19:30N 30°06' W 093°20'2 4.6
2018-Jun-18 19:00N 30°08' W 093°20'3 5.6
2018-Jun-18 18:30N 30°11' W 093°19'3 6.2
2018-Jun-18 18:00N 30°12' W 093°16'2 3.5
2018-Jun-18 17:30N 30°14' W 093°15'2 3.3
2018-Jun-18 17:00N 30°15' W 093°14'1 1.3
2018-Jun-18 16:30N 30°15' W 093°13'1 1.6
2018-Jun-18 15:47N 30°15' W 093°12'0 0.2
2018-Jun-18 15:30N 30°15' W 093°12'1 2.4
2018-Jun-18 15:00N 30°15' W 093°14'1 2.1
2018-Jun-18 14:30N 30°14' W 093°15'1 2.1
2018-Jun-18 14:00N 30°13' W 093°15'0 0.0
2018-Jun-18 13:30N 30°13' W 093°15'1 2.8
2018-Jun-18 13:00N 30°12' W 093°16'3 5.4
2018-Jun-18 12:30N 30°11' W 093°18'3 5.4
2018-Jun-18 12:00N 30°09' W 093°20'3 5.9
2018-Jun-18 11:30N 30°06' W 093°20'0 0.6
2018-Jun-18 11:00N 30°06' W 093°20'2 3.8
2018-Jun-18 10:30N 30°07' W 093°20'3 5.4
2018-Jun-18 10:00N 30°10' W 093°19'3 6.1
2018-Jun-18 09:30N 30°12' W 093°17'1 2.0
2018-Jun-18 09:00N 30°13' W 093°17'3 5.4
2018-Jun-18 08:30N 30°11' W 093°19'1 1.9
2018-Jun-18 08:00N 30°10' W 093°19'3 5.3
2018-Jun-18 07:30N 30°08' W 093°20'3 5.3
2018-Jun-18 07:00N 30°05' W 093°20'0 0.3
2018-Jun-18 06:30N 30°05' W 093°20'0 0.0
2018-Jun-18 06:00N 30°05' W 093°20'0 0.0
2018-Jun-18 05:30N 30°05' W 093°20'0 0.0
2018-Jun-18 05:00N 30°05' W 093°20'0 0.0
2018-Jun-18 04:30N 30°05' W 093°20'0 0.0
2018-Jun-18 04:00N 30°05' W 093°20'1 2.4
2018-Jun-18 03:30N 30°06' W 093°19'1 1.6
2018-Jun-18 03:00N 30°06' W 093°18'0 0.0
2018-Jun-18 02:30N 30°06' W 093°18'0 0.0
2018-Jun-18 02:00N 30°06' W 093°18'0 0.0
2018-Jun-18 01:30N 30°06' W 093°18'0 0.0
2018-Jun-18 01:00N 30°06' W 093°18'0 0.0
2018-Jun-18 00:30N 30°06' W 093°18'0 0.0
2018-Jun-18 00:00N 30°06' W 093°18'0 0.1
2018-Jun-17 23:30N 30°06' W 093°18'0 0.0
2018-Jun-17 23:00N 30°06' W 093°18'3 5.4
2018-Jun-17 22:30N 30°04' W 093°20'1 2.4
2018-Jun-17 22:00N 30°04' W 093°21'2 4.3
2018-Jun-17 21:30N 30°05' W 093°20'0 0.8
2018-Jun-17 21:00N 30°06' W 093°20'0 0.1
2018-Jun-17 20:30N 30°06' W 093°20'0 0.2
2018-Jun-17 20:00N 30°06' W 093°20'0 0.1
2018-Jun-17 19:30N 30°06' W 093°20'0 0.0
2018-Jun-17 19:00N 30°06' W 093°20'0 0.0
2018-Jun-17 18:30N 30°06' W 093°20'0 0.0
2018-Jun-17 18:00N 30°06' W 093°20'0 0.0
2018-Jun-17 17:30N 30°06' W 093°20'0 0.0
2018-Jun-17 17:00N 30°06' W 093°20'0 0.0
2018-Jun-17 16:30N 30°06' W 093°20'0 0.0
2018-Jun-17 16:00N 30°06' W 093°20'0 0.0
2018-Jun-17 15:30N 30°06' W 093°20'0 0.0
2018-Jun-17 15:00N 30°06' W 093°20'0 0.0
2018-Jun-17 14:30N 30°06' W 093°20'0 0.0
2018-Jun-17 14:00N 30°06' W 093°20'0 0.0
2018-Jun-17 13:29N 30°06' W 093°20'0 0.0
2018-Jun-17 13:00N 30°06' W 093°20'0 0.0
2018-Jun-17 12:30N 30°06' W 093°20'1 1.4
2018-Jun-17 12:00N 30°06' W 093°19'0 0.1
2018-Jun-17 11:30N 30°06' W 093°19'2 4.5
2018-Jun-17 11:00N 30°04' W 093°21'1 1.8
2018-Jun-17 10:30N 30°04' W 093°22'1 1.2
2018-Jun-17 10:00N 30°04' W 093°21'1 3.0
2018-Jun-17 09:30N 30°05' W 093°20'0 0.0
2018-Jun-17 09:00N 30°05' W 093°20'0 0.0
2018-Jun-17 08:30N 30°05' W 093°20'0 0.0
2018-Jun-17 08:00N 30°05' W 093°20'1 2.9
2018-Jun-17 07:30N 30°06' W 093°20'3 5.9
2018-Jun-17 07:00N 30°09' W 093°20'1 2.6
2018-Jun-17 06:30N 30°10' W 093°19'0 0.5
2018-Jun-17 06:00N 30°10' W 093°19'2 3.7
2018-Jun-17 05:30N 30°12' W 093°18'2 3.3
2018-Jun-17 05:00N 30°13' W 093°17'1 1.2
2018-Jun-17 04:30N 30°14' W 093°17'2 3.5
2018-Jun-17 04:00N 30°12' W 093°17'2 4.9
2018-Jun-17 03:30N 30°10' W 093°19'2 4.8
2018-Jun-17 03:00N 30°08' W 093°20'2 4.0
2018-Jun-17 02:30N 30°06' W 093°20'0 0.1
2018-Jun-17 02:00N 30°06' W 093°20'0 0.0
2018-Jun-17 01:30N 30°06' W 093°20'0 0.0
2018-Jun-17 01:00N 30°06' W 093°20'0 0.7
2018-Jun-17 00:30N 30°05' W 093°20'1 2.3
2018-Jun-17 00:00N 30°04' W 093°20'0 0.0
2018-Jun-16 23:30N 30°04' W 093°20'0 0.0
2018-Jun-16 23:00N 30°04' W 093°20'1 1.3
2018-Jun-16 22:30N 30°04' W 093°21'0 0.2
2018-Jun-16 22:00N 30°04' W 093°21'2 3.9
2018-Jun-16 21:29N 30°06' W 093°20'2 3.4
2018-Jun-16 21:00N 30°04' W 093°21'2 3.4
2018-Jun-16 20:27N 30°04' W 093°23'0 0.4
2018-Jun-16 20:00N 30°04' W 093°23'0 0.7
2018-Jun-16 19:30N 30°04' W 093°23'2 3.9
2018-Jun-16 19:00N 30°04' W 093°20'0 0.1
2018-Jun-16 18:30N 30°04' W 093°20'0 0.0
2018-Jun-16 18:00N 30°04' W 093°20'1 1.9
2018-Jun-16 17:30N 30°04' W 093°21'1 1.7
2018-Jun-16 17:00N 30°04' W 093°22'0 0.0
2018-Jun-16 16:30N 30°04' W 093°22'1 2.1
2018-Jun-16 16:00N 30°04' W 093°21'1 2.5
2018-Jun-16 15:30N 30°05' W 093°20'1 1.1
2018-Jun-16 15:00N 30°04' W 093°20'0 0.5
2018-Jun-16 14:30N 30°04' W 093°21'1 1.1
2018-Jun-16 14:00N 30°05' W 093°20'2 3.9
2018-Jun-16 13:30N 30°07' W 093°20'3 5.3
2018-Jun-16 13:00N 30°09' W 093°20'0 0.2
2018-Jun-16 12:30N 30°09' W 093°20'3 5.1
2018-Jun-16 12:00N 30°11' W 093°18'2 4.1
2018-Jun-16 11:30N 30°13' W 093°17'0 0.7
2018-Jun-16 11:00N 30°14' W 093°17'2 4.9
2018-Jun-16 10:30N 30°11' W 093°18'3 5.7
2018-Jun-16 10:00N 30°09' W 093°20'3 5.9
2018-Jun-16 09:30N 30°06' W 093°20'1 2.8
2018-Jun-16 08:59N 30°05' W 093°20'0 0.0
2018-Jun-16 08:30N 30°05' W 093°20'0 0.5
2018-Jun-16 08:00N 30°04' W 093°20'0 0.2
2018-Jun-16 07:30N 30°05' W 093°20'0 0.3
2018-Jun-16 07:00N 30°05' W 093°20'0 0.0
2018-Jun-16 06:30N 30°05' W 093°20'0 0.3
2018-Jun-16 06:00N 30°05' W 093°20'1 1.7
2018-Jun-16 05:29N 30°06' W 093°20'0 0.0
2018-Jun-16 05:00N 30°06' W 093°20'0 0.0
2018-Jun-16 04:30N 30°06' W 093°20'0 0.0
2018-Jun-16 04:00N 30°06' W 093°20'0 0.0
2018-Jun-16 03:30N 30°06' W 093°20'0 0.0
2018-Jun-16 02:59N 30°06' W 093°20'0 0.0
2018-Jun-16 02:30N 30°06' W 093°20'0 0.0
2018-Jun-16 02:00N 30°06' W 093°20'0 0.0
2018-Jun-16 01:30N 30°06' W 093°20'0 0.0
2018-Jun-16 01:00N 30°06' W 093°20'0 0.0
2018-Jun-16 00:30N 30°06' W 093°20'0 0.2
2018-Jun-16 00:00N 30°06' W 093°20'2 4.3
2018-Jun-15 23:30N 30°04' W 093°21'0 0.5
2018-Jun-15 23:00N 30°04' W 093°21'2 4.6
2018-Jun-15 22:30N 30°06' W 093°20'0 0.6
2018-Jun-15 22:00N 30°05' W 093°20'2 4.5
2018-Jun-15 21:30N 30°04' W 093°21'0 0.3
2018-Jun-15 21:00N 30°04' W 093°21'0 0.0
2018-Jun-15 20:30N 30°04' W 093°21'0 0.0
2018-Jun-15 20:00N 30°04' W 093°21'1 1.0
2018-Jun-15 19:30N 30°04' W 093°22'0 0.4
2018-Jun-15 19:00N 30°04' W 093°22'0 0.3
2018-Jun-15 18:30N 30°04' W 093°22'0 0.1
2018-Jun-15 18:00N 30°04' W 093°22'1 1.6
2018-Jun-15 17:30N 30°04' W 093°21'1 1.6
2018-Jun-15 17:00N 30°04' W 093°20'0 0.6
2018-Jun-15 16:30N 30°05' W 093°20'1 1.4
2018-Jun-15 15:59N 30°04' W 093°21'1 1.7
2018-Jun-15 15:30N 30°04' W 093°21'0 0.9
2018-Jun-15 15:00N 30°04' W 093°22'2 3.1
2018-Jun-15 14:30N 30°04' W 093°20'0 0.1
2018-Jun-15 14:00N 30°04' W 093°20'0 0.1
2018-Jun-15 13:30N 30°04' W 093°20'1 1.9
2018-Jun-15 13:00N 30°04' W 093°21'0 1.0
2018-Jun-15 12:30N 30°04' W 093°22'3 5.6
2018-Jun-15 12:00N 30°04' W 093°25'3 5.8
2018-Jun-15 11:30N 30°04' W 093°28'3 6.0
2018-Jun-15 11:00N 30°04' W 093°32'3 6.1
2018-Jun-15 10:30N 30°04' W 093°35'4 6.3
2018-Jun-15 09:51N 30°04' W 093°40'2 6.1
2018-Jun-15 09:30N 30°03' W 093°43'3 5.6
2018-Jun-15 08:59N 30°01' W 093°45'3 5.8
2018-Jun-15 08:31N 29°59' W 093°47'3 5.9
2018-Jun-15 08:00N 29°58' W 093°50'2 3.1
2018-Jun-15 07:30N 29°57' W 093°52'0 0.8
2018-Jun-15 07:00N 29°57' W 093°52'1 2.9
2018-Jun-15 06:30N 29°58' W 093°52'3 5.2
2018-Jun-15 06:01N 29°59' W 093°54'0 0.0
2018-Jun-15 05:30N 29°59' W 093°54'0 0.0
2018-Jun-15 04:59N 29°59' W 093°54'0 0.0
2018-Jun-15 04:31N 29°59' W 093°54'0 0.0
2018-Jun-15 04:01N 29°59' W 093°54'0 0.0
2018-Jun-15 03:30N 29°59' W 093°54'0 0.0
2018-Jun-15 03:00N 29°59' W 093°54'0 0.0
2018-Jun-15 02:30N 29°59' W 093°54'0 0.0
2018-Jun-15 02:00N 29°59' W 093°54'0 0.0
2018-Jun-15 01:30N 29°59' W 093°54'0 0.0
2018-Jun-15 01:00N 29°59' W 093°54'0 0.0
2018-Jun-15 00:31N 29°59' W 093°54'0 0.0
2018-Jun-15 00:01N 29°59' W 093°54'2 3.2
2018-Jun-14 23:30N 29°59' W 093°53'2 4.2
2018-Jun-14 23:00N 29°57' W 093°52'1 1.6
2018-Jun-14 22:30N 29°58' W 093°52'1 1.7
2018-Jun-14 22:01N 29°57' W 093°52'3 5.9
2018-Jun-14 21:30N 29°59' W 093°49'4 6.6
2018-Jun-14 20:50N 30°01' W 093°45'3 6.6
2018-Jun-14 20:26N 30°03' W 093°43'10 6.2
2018-Jun-14 18:49N 30°04' W 093°31'2 5.9
2018-Jun-14 18:30N 30°04' W 093°29'3 5.9
2018-Jun-14 18:00N 30°04' W 093°26'3 5.6
2018-Jun-14 17:30N 30°04' W 093°23'3 5.7
2018-Jun-14 17:00N 30°05' W 093°20'1 1.7
2018-Jun-14 16:30N 30°04' W 093°20'1 2.5
2018-Jun-14 16:00N 30°04' W 093°22'2 4.2
2018-Jun-14 15:30N 30°05' W 093°20'0 0.6
2018-Jun-14 15:00N 30°05' W 093°20'2 4.0
2018-Jun-14 14:30N 30°04' W 093°22'2 3.9
2018-Jun-14 14:00N 30°05' W 093°20'1 1.7
2018-Jun-14 13:30N 30°06' W 093°20'2 4.2
2018-Jun-14 13:00N 30°04' W 093°21'0 0.9
2018-Jun-14 12:30N 30°04' W 093°21'3 5.0
2018-Jun-14 12:00N 30°06' W 093°20'0 0.4
2018-Jun-14 11:30N 30°06' W 093°20'1 1.4
2018-Jun-14 11:00N 30°05' W 093°20'1 1.5
2018-Jun-14 10:30N 30°04' W 093°20'1 1.6
2018-Jun-14 10:00N 30°05' W 093°20'3 5.1
2018-Jun-14 09:30N 30°08' W 093°20'2 4.8
2018-Jun-14 09:00N 30°10' W 093°19'3 5.3
2018-Jun-14 08:30N 30°12' W 093°17'1 2.8
2018-Jun-14 07:59N 30°13' W 093°17'1 2.6
2018-Jun-14 07:30N 30°12' W 093°17'3 5.4
2018-Jun-14 07:00N 30°10' W 093°19'2 4.9
2018-Jun-14 06:30N 30°08' W 093°20'2 4.6
2018-Jun-14 06:00N 30°06' W 093°20'0 0.0
2018-Jun-14 05:29N 30°06' W 093°20'0 0.0
2018-Jun-14 05:00N 30°06' W 093°20'0 0.0
2018-Jun-14 04:30N 30°06' W 093°20'0 0.0
2018-Jun-14 04:00N 30°06' W 093°20'0 0.0
2018-Jun-14 03:30N 30°06' W 093°20'0 0.0
2018-Jun-14 03:00N 30°06' W 093°20'0 0.0
2018-Jun-14 02:30N 30°06' W 093°20'0 0.0
2018-Jun-14 02:00N 30°06' W 093°20'0 0.0
2018-Jun-14 01:30N 30°06' W 093°20'0 0.0
2018-Jun-14 01:00N 30°06' W 093°20'1 1.6
2018-Jun-14 00:30N 30°05' W 093°20'2 3.8
2018-Jun-14 00:00N 30°06' W 093°18'2 3.1
2018-Jun-13 23:30N 30°06' W 093°20'0 0.3
2018-Jun-13 23:00N 30°06' W 093°20'2 3.8
2018-Jun-13 22:30N 30°08' W 093°20'3 5.9
2018-Jun-13 22:00N 30°10' W 093°19'3 6.4
2018-Jun-13 21:30N 30°12' W 093°16'2 3.6
2018-Jun-13 21:00N 30°14' W 093°15'0 0.1
2018-Jun-13 20:30N 30°14' W 093°15'0 0.3
2018-Jun-13 19:59N 30°14' W 093°15'0 0.2
2018-Jun-13 19:30N 30°14' W 093°15'1 1.9
2018-Jun-13 19:00N 30°13' W 093°16'2 3.7
2018-Jun-13 18:30N 30°12' W 093°17'2 4.1
2018-Jun-13 18:00N 30°10' W 093°19'2 3.7
2018-Jun-13 17:30N 30°09' W 093°20'2 4.0
2018-Jun-13 17:00N 30°07' W 093°20'2 3.4
2018-Jun-13 16:30N 30°05' W 093°20'1 1.6
2018-Jun-13 16:00N 30°04' W 093°20'1 1.9
2018-Jun-13 15:30N 30°04' W 093°21'0 0.3
2018-Jun-13 15:00N 30°04' W 093°21'0 0.2
2018-Jun-13 14:30N 30°04' W 093°21'0 0.0
2018-Jun-13 14:00N 30°04' W 093°21'0 0.0
2018-Jun-13 13:30N 30°04' W 093°21'0 0.0
2018-Jun-13 13:00N 30°04' W 093°21'2 3.7
2018-Jun-13 12:30N 30°05' W 093°20'0 0.0
2018-Jun-13 12:00N 30°05' W 093°20'0 0.0
2018-Jun-13 11:30N 30°05' W 093°20'0 0.1
2018-Jun-13 11:00N 30°05' W 093°20'2 3.2
2018-Jun-13 10:30N 30°04' W 093°21'0 0.7
2018-Jun-13 10:00N 30°04' W 093°21'0 0.2
2018-Jun-13 09:30N 30°04' W 093°21'2 3.6
2018-Jun-13 09:00N 30°05' W 093°20'1 2.0
2018-Jun-13 08:30N 30°04' W 093°21'2 3.8
2018-Jun-13 08:00N 30°04' W 093°23'1 1.3
2018-Jun-13 07:30N 30°04' W 093°22'2 3.0
2018-Jun-13 07:00N 30°04' W 093°20'0 0.0
2018-Jun-13 06:30N 30°04' W 093°20'0 0.0
2018-Jun-13 06:00N 30°04' W 093°20'0 0.8
2018-Jun-13 05:30N 30°04' W 093°21'0 0.0
2018-Jun-13 05:00N 30°04' W 093°21'1 1.5
2018-Jun-13 04:30N 30°04' W 093°21'0 0.5
2018-Jun-13 04:00N 30°04' W 093°22'0 1.0
2018-Jun-13 03:30N 30°04' W 093°21'3 5.1
2018-Jun-13 03:00N 30°04' W 093°24'3 5.6
2018-Jun-13 02:30N 30°04' W 093°27'3 6.1
2018-Jun-13 02:00N 30°04' W 093°31'7 6.0
2018-Jun-13 00:53N 30°04' W 093°39'2 5.9
2018-Jun-13 00:28N 30°04' W 093°41'3 5.8
2018-Jun-13 00:00N 30°02' W 093°44'3 5.7
2018-Jun-12 23:30N 30°00' W 093°46'3 5.7
2018-Jun-12 23:01N 29°59' W 093°49'3 5.6
2018-Jun-12 22:31N 29°57' W 093°52'1 1.2
2018-Jun-12 22:00N 29°58' W 093°52'1 1.5
2018-Jun-12 21:30N 29°57' W 093°52'3 5.4
2018-Jun-12 21:00N 29°59' W 093°50'4 6.1
2018-Jun-12 20:17N 30°01' W 093°45'3 6.0
2018-Jun-12 19:48N 30°03' W 093°43'2 6.1
2018-Jun-12 19:30N 30°04' W 093°41'8 5.9
2018-Jun-12 18:04N 30°04' W 093°31'0 5.8
2018-Jun-12 17:58N 30°04' W 093°31'3 5.9
2018-Jun-12 17:30N 30°04' W 093°27'3 5.8
2018-Jun-12 17:00N 30°04' W 093°24'2 4.9
2018-Jun-12 16:30N 30°04' W 093°21'2 3.7
2018-Jun-12 16:00N 30°05' W 093°20'0 0.9
2018-Jun-12 15:30N 30°04' W 093°20'3 6.8
2018-Jun-12 15:00N 30°01' W 093°20'14 4.9
2018-Jun-12 12:07N 29°47' W 093°20'6 3.0
2018-Jun-12 10:11N 29°53' W 093°21'1 5.3
2018-Jun-12 09:59N 29°54' W 093°21'3 5.4
2018-Jun-12 09:31N 29°56' W 093°20'3 5.4
2018-Jun-12 09:01N 29°59' W 093°20'3 5.4
2018-Jun-12 08:31N 30°02' W 093°20'3 5.6
2018-Jun-12 08:00N 30°05' W 093°20'2 3.2
2018-Jun-12 07:31N 30°04' W 093°21'2 3.1
2018-Jun-12 07:01N 30°04' W 093°23'1 2.4
2018-Jun-12 06:30N 30°04' W 093°24'3 5.6
2018-Jun-12 06:01N 30°04' W 093°28'3 6.0
2018-Jun-12 05:30N 30°04' W 093°31'5 5.4
2018-Jun-12 04:37N 30°04' W 093°37'1 6.6
2018-Jun-12 04:29N 30°04' W 093°38'4 6.5
2018-Jun-12 03:55N 30°04' W 093°42'3 6.1
2018-Jun-12 03:30N 30°02' W 093°44'3 6.2
2018-Jun-12 02:59N 29°60' W 093°47'3 6.4
2018-Jun-12 02:31N 29°59' W 093°50'2 3.7
2018-Jun-12 02:00N 29°58' W 093°52'0 0.5
2018-Jun-12 01:30N 29°58' W 093°52'0 0.7
2018-Jun-12 01:01N 29°58' W 093°51'0 0.5
2018-Jun-12 00:29N 29°58' W 093°52'0 0.5
2018-Jun-12 00:00N 29°58' W 093°51'3 6.3
2018-Jun-11 23:30N 29°59' W 093°48'3 6.2
2018-Jun-11 23:00N 30°01' W 093°45'3 5.7
2018-Jun-11 22:30N 30°03' W 093°43'10 5.9
2018-Jun-11 20:48N 30°04' W 093°31'2 6.1
2018-Jun-11 20:30N 30°04' W 093°29'3 6.1
2018-Jun-11 20:00N 30°04' W 093°26'3 5.6
2018-Jun-11 19:31N 30°04' W 093°22'0 0.9
2018-Jun-11 19:01N 30°04' W 093°23'1 2.9
2018-Jun-11 18:30N 30°04' W 093°21'0 0.1
2018-Jun-11 18:01N 30°04' W 093°21'0 0.0
2018-Jun-11 17:31N 30°04' W 093°21'0 0.0
2018-Jun-11 17:01N 30°04' W 093°21'0 0.0
2018-Jun-11 16:30N 30°04' W 093°21'0 0.0
2018-Jun-11 16:00N 30°04' W 093°21'0 0.0
2018-Jun-11 15:31N 30°04' W 093°21'0 0.0
2018-Jun-11 15:00N 30°04' W 093°21'0 0.0
2018-Jun-11 14:31N 30°04' W 093°21'0 0.0
2018-Jun-11 14:01N 30°04' W 093°21'0 0.0
2018-Jun-11 13:30N 30°04' W 093°21'0 0.0
2018-Jun-11 13:00N 30°04' W 093°21'2 3.4
2018-Jun-11 12:30N 30°05' W 093°20'0 0.5
2018-Jun-11 12:00N 30°05' W 093°20'3 5.2
2018-Jun-11 11:30N 30°08' W 093°20'3 5.5
2018-Jun-11 11:00N 30°10' W 093°19'0 0.2
2018-Jun-11 10:30N 30°10' W 093°19'0 0.0
2018-Jun-11 10:00N 30°10' W 093°19'1 1.5
2018-Jun-11 09:30N 30°10' W 093°19'3 6.1
2018-Jun-11 09:00N 30°07' W 093°20'2 4.9
2018-Jun-11 08:30N 30°04' W 093°21'1 2.3
2018-Jun-11 08:00N 30°04' W 093°22'0 0.2
2018-Jun-11 07:30N 30°04' W 093°22'1 2.9
2018-Jun-11 07:00N 30°05' W 093°20'1 1.6
2018-Jun-11 06:30N 30°05' W 093°20'1 2.8
2018-Jun-11 06:00N 30°06' W 093°19'0 0.5
2018-Jun-11 05:30N 30°06' W 093°19'3 5.2
2018-Jun-11 05:00N 30°04' W 093°21'1 1.8
2018-Jun-11 04:30N 30°04' W 093°22'0 0.1
2018-Jun-11 04:00N 30°04' W 093°22'0 0.2
2018-Jun-11 03:28N 30°04' W 093°22'1 2.2
2018-Jun-11 03:00N 30°04' W 093°21'0 1.0
2018-Jun-11 02:30N 30°05' W 093°20'3 5.6
2018-Jun-11 02:00N 30°07' W 093°20'3 6.6
2018-Jun-11 01:30N 30°11' W 093°19'3 6.5
2018-Jun-11 01:00N 30°12' W 093°16'1 1.3
2018-Jun-11 00:30N 30°13' W 093°15'0 0.1
2018-Jun-11 00:00N 30°13' W 093°15'0 0.0
2018-Jun-10 23:30N 30°13' W 093°15'1 1.2
2018-Jun-10 23:00N 30°13' W 093°16'2 3.7
2018-Jun-10 22:30N 30°12' W 093°17'3 5.9
2018-Jun-10 22:00N 30°10' W 093°19'3 5.8
2018-Jun-10 21:30N 30°07' W 093°20'2 4.3
2018-Jun-10 21:00N 30°05' W 093°20'0 0.0
2018-Jun-10 20:30N 30°05' W 093°20'2 4.1
2018-Jun-10 20:00N 30°06' W 093°19'2 3.6
2018-Jun-10 19:30N 30°05' W 093°20'2 3.1
2018-Jun-10 19:00N 30°04' W 093°21'3 5.8
2018-Jun-10 18:30N 30°06' W 093°19'1 1.9
2018-Jun-10 18:00N 30°05' W 093°20'0 0.4
2018-Jun-10 17:30N 30°05' W 093°20'2 3.1
2018-Jun-10 17:00N 30°06' W 093°18'0 0.0
2018-Jun-10 16:30N 30°06' W 093°18'0 0.5
2018-Jun-10 16:00N 30°06' W 093°18'2 4.5
2018-Jun-10 15:30N 30°05' W 093°20'1 2.3
2018-Jun-10 15:00N 30°04' W 093°21'0 0.0
2018-Jun-10 14:30N 30°04' W 093°21'0 0.0
2018-Jun-10 13:30N 30°04' W 093°21'1 2.2
2018-Jun-10 13:00N 30°04' W 093°20'0 0.0
2018-Jun-10 12:30N 30°04' W 093°20'0 0.0
2018-Jun-10 12:00N 30°04' W 093°20'0 0.0
2018-Jun-10 11:30N 30°04' W 093°20'0 0.5
2018-Jun-10 11:01N 30°04' W 093°21'1 2.2
2018-Jun-10 10:30N 30°04' W 093°22'0 0.3
2018-Jun-10 10:00N 30°04' W 093°22'1 2.3
2018-Jun-10 09:30N 30°04' W 093°21'2 4.6
2018-Jun-10 09:01N 30°06' W 093°20'2 4.5
2018-Jun-10 08:30N 30°09' W 093°20'0 0.6
2018-Jun-10 08:00N 30°09' W 093°20'0 0.0
2018-Jun-10 07:30N 30°09' W 093°20'0 0.0
2018-Jun-10 07:00N 30°09' W 093°20'0 0.0
2018-Jun-10 06:30N 30°09' W 093°20'0 0.0
2018-Jun-10 06:01N 30°09' W 093°20'0 0.0
2018-Jun-10 05:30N 30°09' W 093°20'0 0.0
2018-Jun-10 05:01N 30°09' W 093°20'0 0.0
2018-Jun-10 04:30N 30°09' W 093°20'0 0.0
2018-Jun-10 04:00N 30°09' W 093°20'0 0.0
2018-Jun-10 03:30N 30°09' W 093°20'0 0.0
2018-Jun-10 03:00N 30°09' W 093°20'0 0.0
2018-Jun-10 02:30N 30°09' W 093°20'0 0.0
2018-Jun-10 02:00N 30°09' W 093°20'0 0.0
2018-Jun-10 01:30N 30°09' W 093°20'0 0.0
2018-Jun-10 01:00N 30°09' W 093°20'0 0.0
2018-Jun-10 00:31N 30°09' W 093°20'0 0.0
2018-Jun-10 00:01N 30°09' W 093°20'0 0.0
2018-Jun-09 23:30N 30°09' W 093°20'0 0.0
2018-Jun-09 23:01N 30°09' W 093°20'0 0.0
2018-Jun-09 22:31N 30°09' W 093°20'1 1.5
2018-Jun-09 22:00N 30°08' W 093°20'0 0.0
2018-Jun-09 21:30N 30°08' W 093°20'0 0.0
2018-Jun-09 21:01N 30°08' W 093°20'1 2.8
2018-Jun-09 20:30N 30°07' W 093°20'2 3.8
2018-Jun-09 20:00N 30°05' W 093°20'0 0.1
2018-Jun-09 19:31N 30°05' W 093°20'0 0.0
2018-Jun-09 19:00N 30°05' W 093°20'2 3.4
2018-Jun-09 18:30N 30°04' W 093°21'0 0.0
2018-Jun-09 17:58N 30°04' W 093°21'0 0.0
2018-Jun-09 17:30N 30°04' W 093°21'0 0.0
2018-Jun-09 17:00N 30°04' W 093°21'0 0.0
2018-Jun-09 16:30N 30°04' W 093°21'0 0.0
2018-Jun-09 16:00N 30°04' W 093°21'0 0.0
2018-Jun-09 15:01N 30°04' W 093°21'0 0.0
2018-Jun-09 14:30N 30°04' W 093°21'0 0.0
2018-Jun-09 14:01N 30°04' W 093°21'0 0.0
2018-Jun-09 13:30N 30°04' W 093°21'0 0.0
2018-Jun-09 13:00N 30°04' W 093°21'0 0.0
2018-Jun-09 12:30N 30°04' W 093°21'0 0.0
2018-Jun-09 12:00N 30°04' W 093°21'0 0.0
2018-Jun-09 11:30N 30°04' W 093°21'0 0.6
2018-Jun-09 11:00N 30°04' W 093°22'0 0.8
2018-Jun-09 10:30N 30°04' W 093°21'1 2.4
2018-Jun-09 10:01N 30°05' W 093°20'0 0.4
2018-Jun-09 09:30N 30°05' W 093°20'0 0.0
2018-Jun-09 08:57N 30°05' W 093°20'0 0.0
2018-Jun-09 08:28N 30°05' W 093°20'0 0.0
2018-Jun-09 07:59N 30°05' W 093°20'0 0.0
2018-Jun-09 07:29N 30°05' W 093°20'0 0.7
2018-Jun-09 07:00N 30°05' W 093°20'2 4.7
2018-Jun-09 06:30N 30°07' W 093°20'2 3.2
2018-Jun-09 06:00N 30°09' W 093°20'0 0.3
2018-Jun-09 05:30N 30°09' W 093°20'3 5.4
2018-Jun-09 05:00N 30°06' W 093°20'2 3.1
2018-Jun-09 04:30N 30°05' W 093°20'0 0.0
2018-Jun-09 04:00N 30°05' W 093°20'0 0.0
2018-Jun-09 03:30N 30°05' W 093°20'0 0.2
2018-Jun-09 03:00N 30°05' W 093°20'0 0.0
2018-Jun-09 02:30N 30°05' W 093°20'0 0.0
2018-Jun-09 02:01N 30°05' W 093°20'0 0.0
2018-Jun-09 01:30N 30°05' W 093°20'0 0.0
2018-Jun-09 01:00N 30°05' W 093°20'0 0.0
2018-Jun-09 00:30N 30°05' W 093°20'0 0.0
2018-Jun-09 00:00N 30°05' W 093°20'0 0.0
2018-Jun-08 23:31N 30°05' W 093°20'0 0.0
2018-Jun-08 23:00N 30°05' W 093°20'1 1.0
2018-Jun-08 22:30N 30°04' W 093°21'0 0.9
2018-Jun-08 22:01N 30°04' W 093°21'  

Dump ship's entire track history